createdAt,value
2019-04-28T00:00:21.499Z,1008.77
2019-04-28T00:01:41.568Z,1008.76
2019-04-28T00:02:07.705Z,1008.76
2019-04-28T00:03:00.998Z,1008.74
2019-04-28T00:04:19.432Z,1008.73
2019-04-28T00:05:12.378Z,1008.74
2019-04-28T00:05:38.539Z,1008.77
2019-04-28T00:06:32.234Z,1008.77
2019-04-28T00:06:58.362Z,1008.72
2019-04-28T00:07:52.822Z,1008.75
2019-04-28T00:08:20.639Z,1008.75
2019-04-28T00:08:47.847Z,1008.76
2019-04-28T00:09:41.522Z,1008.74
2019-04-28T00:11:01.745Z,1008.78
2019-04-28T00:12:20.994Z,1008.74
2019-04-28T00:12:47.861Z,1008.75
2019-04-28T00:13:42.142Z,1008.76
2019-04-28T00:14:09.267Z,1008.75
2019-04-28T00:15:02.823Z,1008.74
2019-04-28T00:15:30.372Z,1008.76
2019-04-28T00:16:51.088Z,1008.72
2019-04-28T00:18:09.094Z,1008.71
2019-04-28T00:19:02.624Z,1008.67
2019-04-28T00:19:28.775Z,1008.7
2019-04-28T00:20:50.937Z,1008.73
2019-04-28T00:21:42.779Z,1008.69
2019-04-28T00:22:10.835Z,1008.67
2019-04-28T00:23:03.830Z,1008.7
2019-04-28T00:23:31.389Z,1008.71
2019-04-28T00:23:57.938Z,1008.7
2019-04-28T00:24:52.091Z,1008.71
2019-04-28T00:25:18.215Z,1008.72
2019-04-28T00:26:11.986Z,1008.66
2019-04-28T00:26:38.120Z,1008.71
2019-04-28T00:27:31.634Z,1008.72
2019-04-28T00:27:57.771Z,1008.74
2019-04-28T00:28:51.361Z,1008.71
2019-04-28T00:30:11.801Z,1008.72
2019-04-28T00:30:37.915Z,1008.69
2019-04-28T00:31:31.714Z,1008.73
2019-04-28T00:31:57.825Z,1008.72
2019-04-28T00:32:24.950Z,1008.68
2019-04-28T00:33:43.672Z,1008.73
2019-04-28T00:34:35.922Z,1008.75
2019-04-28T00:35:02.384Z,1008.71
2019-04-28T00:35:55.723Z,1008.75
2019-04-28T00:36:21.854Z,1008.8
2019-04-28T00:37:14.503Z,1008.76
2019-04-28T00:38:06.779Z,1008.73
2019-04-28T00:38:33.911Z,1008.73
2019-04-28T00:39:26.195Z,1008.7
2019-04-28T00:39:52.354Z,1008.73
2019-04-28T00:40:44.638Z,1008.73
2019-04-28T00:42:03.401Z,1008.74
2019-04-28T00:42:55.481Z,1008.73
2019-04-28T00:44:13.908Z,1008.75
2019-04-28T00:45:06.180Z,1008.71
2019-04-28T00:45:32.318Z,1008.73
2019-04-28T00:46:24.655Z,1008.71
2019-04-28T00:47:16.938Z,1008.68
2019-04-28T00:47:43.070Z,1008.67
2019-04-28T00:48:35.351Z,1008.7
2019-04-28T00:49:54.690Z,1008.66
2019-04-28T00:51:14.135Z,1008.68
2019-04-28T00:52:06.410Z,1008.66
2019-04-28T00:52:32.805Z,1008.72
2019-04-28T00:53:25.087Z,1008.66
2019-04-28T00:54:43.539Z,1008.69
2019-04-28T00:55:35.867Z,1008.67
2019-04-28T00:56:02.208Z,1008.66
2019-04-28T00:56:54.505Z,1008.69
2019-04-28T00:57:46.820Z,1008.66
2019-04-28T00:58:12.970Z,1008.65
2019-04-28T00:59:05.322Z,1008.64
2019-04-28T01:00:25.718Z,1008.65
2019-04-28T01:00:51.854Z,1008.65
2019-04-28T01:01:44.136Z,1008.65
2019-04-28T01:02:36.415Z,1008.62
2019-04-28T01:03:02.550Z,1008.64
2019-04-28T01:03:54.853Z,1008.58
2019-04-28T01:05:13.297Z,1008.61
2019-04-28T01:06:05.578Z,1008.62
2019-04-28T01:07:24.903Z,1008.59
2019-04-28T01:08:43.314Z,1008.59
2019-04-28T01:09:35.591Z,1008.61
2019-04-28T01:10:01.721Z,1008.56
2019-04-28T01:10:54.026Z,1008.6
2019-04-28T01:11:46.308Z,1008.59
2019-04-28T01:12:12.439Z,1008.61
2019-04-28T01:13:05.709Z,1008.58
2019-04-28T01:13:32.032Z,1008.6
2019-04-28T01:14:24.289Z,1008.59
2019-04-28T01:15:44.716Z,1008.57
2019-04-28T01:17:03.166Z,1008.58
2019-04-28T01:17:55.456Z,1008.58
2019-04-28T01:19:13.875Z,1008.6
2019-04-28T01:20:06.150Z,1008.57
2019-04-28T01:20:32.291Z,1008.59
2019-04-28T01:21:24.569Z,1008.63
2019-04-28T01:22:16.870Z,1008.56
2019-04-28T01:22:43.005Z,1008.55
2019-04-28T01:23:35.302Z,1008.59
2019-04-28T01:24:53.724Z,1008.56
2019-04-28T01:25:46.023Z,1008.58
2019-04-28T01:26:12.154Z,1008.59
2019-04-28T01:27:04.432Z,1008.59
2019-04-28T01:27:56.713Z,1008.61
2019-04-28T01:28:22.872Z,1008.61
2019-04-28T01:29:15.170Z,1008.62
2019-04-28T01:30:35.567Z,1008.61
2019-04-28T01:31:53.992Z,1008.62
2019-04-28T01:32:46.272Z,1008.58
2019-04-28T01:33:12.407Z,1008.64
2019-04-28T01:34:04.684Z,1008.63
2019-04-28T01:35:23.155Z,1008.64
2019-04-28T01:36:15.434Z,1008.54
2019-04-28T01:37:33.878Z,1008.63
2019-04-28T01:38:26.176Z,1008.62
2019-04-28T01:38:52.321Z,1008.61
2019-04-28T01:39:44.629Z,1008.59
2019-04-28T01:40:36.921Z,1008.62
2019-04-28T01:41:03.058Z,1008.59
2019-04-28T01:41:55.371Z,1008.62
2019-04-28T01:43:13.786Z,1008.58
2019-04-28T01:44:06.090Z,1008.59
2019-04-28T01:44:32.238Z,1008.55
2019-04-28T01:45:24.517Z,1008.58
2019-04-28T01:46:16.804Z,1008.58
2019-04-28T01:46:42.978Z,1008.61
2019-04-28T01:47:35.248Z,1008.62
2019-04-28T01:48:53.690Z,1008.61
2019-04-28T01:49:46.001Z,1008.65
2019-04-28T01:50:12.158Z,1008.62
2019-04-28T01:51:04.439Z,1008.6
2019-04-28T01:51:56.729Z,1008.64
2019-04-28T01:52:22.865Z,1008.58
2019-04-28T01:53:15.151Z,1008.63
2019-04-28T01:54:33.567Z,1008.64
2019-04-28T01:55:25.847Z,1008.64
2019-04-28T01:55:51.986Z,1008.65
2019-04-28T01:56:44.267Z,1008.63
2019-04-28T01:57:36.552Z,1008.67
2019-04-28T01:58:03.433Z,1008.65
2019-04-28T01:58:55.754Z,1008.61
2019-04-28T01:59:21.894Z,1008.68
2019-04-28T02:00:22.770Z,1008.67
2019-04-28T02:01:33.667Z,1008.66
2019-04-28T02:02:25.958Z,1008.64
2019-04-28T02:02:52.093Z,1008.66
2019-04-28T02:03:44.368Z,1008.7
2019-04-28T02:04:36.684Z,1008.63
2019-04-28T02:05:02.838Z,1008.66
2019-04-28T02:05:55.135Z,1008.7
2019-04-28T02:07:13.581Z,1008.69
2019-04-28T02:08:05.886Z,1008.66
2019-04-28T02:08:32.053Z,1008.66
2019-04-28T02:09:24.374Z,1008.7
2019-04-28T02:10:16.694Z,1008.7
2019-04-28T02:10:42.844Z,1008.72
2019-04-28T02:11:35.132Z,1008.74
2019-04-28T02:12:53.548Z,1008.7
2019-04-28T02:13:45.882Z,1008.69
2019-04-28T02:14:12.016Z,1008.71
2019-04-28T02:15:04.294Z,1008.7
2019-04-28T02:15:56.577Z,1008.71
2019-04-28T02:16:22.717Z,1008.7
2019-04-28T02:17:15.333Z,1008.73
2019-04-28T02:18:33.743Z,1008.72
2019-04-28T02:19:26.081Z,1008.76
2019-04-28T02:19:52.217Z,1008.76
2019-04-28T02:20:44.506Z,1008.73
2019-04-28T02:21:36.791Z,1008.78
2019-04-28T02:22:02.924Z,1008.75
2019-04-28T02:22:55.207Z,1008.74
2019-04-28T02:24:13.686Z,1008.72
2019-04-28T02:25:05.963Z,1008.73
2019-04-28T02:25:32.105Z,1008.74
2019-04-28T02:26:24.385Z,1008.77
2019-04-28T02:27:16.706Z,1008.76
2019-04-28T02:27:42.841Z,1008.75
2019-04-28T02:28:35.116Z,1008.75
2019-04-28T02:29:53.538Z,1008.74
2019-04-28T02:31:14.901Z,1008.82
2019-04-28T02:32:34.956Z,1008.79
2019-04-28T02:33:53.817Z,1008.84
2019-04-28T02:34:46.210Z,1008.84
2019-04-28T02:35:12.416Z,1008.83
2019-04-28T02:36:04.791Z,1008.85
2019-04-28T02:37:24.258Z,1008.91
2019-04-28T02:38:16.541Z,1008.9
2019-04-28T02:38:43.665Z,1008.9
2019-04-28T02:39:35.980Z,1008.91
2019-04-28T02:40:03.381Z,1008.88
2019-04-28T02:40:54.536Z,1008.93
2019-04-28T02:41:46.892Z,1008.9
2019-04-28T02:42:13.035Z,1008.93
2019-04-28T02:43:05.370Z,1008.94
2019-04-28T02:44:23.845Z,1008.94
2019-04-28T02:45:16.260Z,1009
2019-04-28T02:45:42.397Z,1009
2019-04-28T02:46:35.317Z,1009
2019-04-28T02:47:54.775Z,1009.09
2019-04-28T02:49:14.356Z,1009.07
2019-04-28T02:50:06.712Z,1009.06
2019-04-28T02:50:33.220Z,1009.08
2019-04-28T02:51:25.494Z,1009.1
2019-04-28T02:52:44.952Z,1009.11
2019-04-28T02:54:04.380Z,1009.11
2019-04-28T02:54:56.700Z,1009.1
2019-04-28T02:55:23.916Z,1009.09
2019-04-28T02:56:16.219Z,1009.13
2019-04-28T02:56:43.716Z,1009.14
2019-04-28T02:57:35.675Z,1009.16
2019-04-28T02:58:01.911Z,1009.13
2019-04-28T02:58:55.152Z,1009.2
2019-04-28T03:00:14.604Z,1009.17
2019-04-28T03:02:03.597Z,1009.16
2019-04-28T03:02:55.939Z,1009.14
2019-04-28T03:03:22.114Z,1009.12
2019-04-28T03:04:14.418Z,1009.15
2019-04-28T03:05:06.763Z,1009.13
2019-04-28T03:05:33.353Z,1009.14
2019-04-28T03:06:25.873Z,1009.13
2019-04-28T03:06:52.102Z,1009.13
2019-04-28T03:07:45.352Z,1009.17
2019-04-28T03:09:03.819Z,1009.12
2019-04-28T03:09:56.145Z,1009.17
2019-04-28T03:10:22.307Z,1009.17
2019-04-28T03:11:14.592Z,1009.12
2019-04-28T03:12:06.900Z,1009.13
2019-04-28T03:12:33.063Z,1009.17
2019-04-28T03:13:25.454Z,1009.19
2019-04-28T03:14:44.288Z,1009.14
2019-04-28T03:15:36.221Z,1009.17
2019-04-28T03:16:02.421Z,1009.16
2019-04-28T03:16:54.712Z,1009.18
2019-04-28T03:18:14.126Z,1009.18
2019-04-28T03:19:06.411Z,1009.2
2019-04-28T03:19:34.057Z,1009.16
2019-04-28T03:20:25.819Z,1009.18
2019-04-28T03:20:52.065Z,1009.17
2019-04-28T03:21:45.268Z,1009.18
2019-04-28T03:23:08.659Z,1009.23
2019-04-28T03:23:31.857Z,1009.23
2019-04-28T03:24:24.133Z,1009.24
2019-04-28T03:25:16.494Z,1009.23
2019-04-28T03:25:43.644Z,1009.24
2019-04-28T03:26:35.984Z,1009.22
2019-04-28T03:27:03.537Z,1009.25
2019-04-28T03:27:55.414Z,1009.26
2019-04-28T03:29:14.896Z,1009.24
2019-04-28T03:30:34.116Z,1009.29
2019-04-28T03:32:36.507Z,1009.27
2019-04-28T03:32:59.940Z,1009.26
2019-04-28T03:33:25.212Z,1009.26
2019-04-28T03:34:45.756Z,1009.24
2019-04-28T03:35:13.089Z,1009.26
2019-04-28T03:36:08.215Z,1009.3
2019-04-28T03:36:33.464Z,1009.28
2019-04-28T03:37:25.744Z,1009.34
2019-04-28T03:37:51.904Z,1009.33
2019-04-28T03:38:44.239Z,1009.3
2019-04-28T03:39:36.538Z,1009.3
2019-04-28T03:40:02.688Z,1009.29
2019-04-28T03:40:54.950Z,1009.3
2019-04-28T03:42:13.419Z,1009.32
2019-04-28T03:43:06.694Z,1009.34
2019-04-28T03:43:33.811Z,1009.33
2019-04-28T03:44:26.107Z,1009.33
2019-04-28T03:44:52.298Z,1009.36
2019-04-28T03:45:44.587Z,1009.37
2019-04-28T03:47:03.214Z,1009.34
2019-04-28T03:47:55.446Z,1009.35
2019-04-28T03:49:14.878Z,1009.36
2019-04-28T03:50:33.323Z,1009.4
2019-04-28T03:51:25.668Z,1009.43
2019-04-28T03:51:51.855Z,1009.41
2019-04-28T03:52:44.196Z,1009.41
2019-04-28T03:53:36.495Z,1009.41
2019-04-28T03:54:03.110Z,1009.42
2019-04-28T03:54:55.507Z,1009.44
2019-04-28T03:56:14.991Z,1009.44
2019-04-28T03:57:33.431Z,1009.47
2019-04-28T03:58:25.718Z,1009.44
2019-04-28T03:58:51.892Z,1009.46
2019-04-28T03:59:44.198Z,1009.49
2019-04-28T04:00:36.508Z,1009.43
2019-04-28T04:01:03.311Z,1009.44
2019-04-28T04:02:00.563Z,1009.47
2019-04-28T04:02:24.414Z,1009.45
2019-04-28T04:03:16.702Z,1009.47
2019-04-28T04:03:42.862Z,1009.49
2019-04-28T04:04:35.163Z,1009.46
2019-04-28T04:05:53.617Z,1009.46
2019-04-28T04:06:45.955Z,1009.45
2019-04-28T04:07:12.174Z,1009.46
2019-04-28T04:08:04.546Z,1009.44
2019-04-28T04:08:56.830Z,1009.45
2019-04-28T04:09:24.213Z,1009.44
2019-04-28T04:10:16.228Z,1009.46
2019-04-28T04:10:42.400Z,1009.45
2019-04-28T04:11:34.715Z,1009.46
2019-04-28T04:12:53.197Z,1009.45
2019-04-28T04:13:45.518Z,1009.45
2019-04-28T04:15:04.179Z,1009.46
2019-04-28T04:16:24.598Z,1009.48
2019-04-28T04:17:16.900Z,1009.48
2019-04-28T04:17:44.022Z,1009.49
2019-04-28T04:18:36.333Z,1009.52
2019-04-28T04:19:03.463Z,1009.51
2019-04-28T04:19:55.824Z,1009.51
2019-04-28T04:20:23.731Z,1009.5
2019-04-28T04:21:15.315Z,1009.52
2019-04-28T04:22:34.684Z,1009.51
2019-04-28T04:23:53.170Z,1009.49
2019-04-28T04:24:45.539Z,1009.52
2019-04-28T04:25:12.906Z,1009.5
2019-04-28T04:26:05.229Z,1009.51
2019-04-28T04:27:23.760Z,1009.55
2019-04-28T04:28:16.115Z,1009.55
2019-04-28T04:28:42.288Z,1009.56
2019-04-28T04:29:34.599Z,1009.55
2019-04-28T04:30:26.879Z,1009.6
2019-04-28T04:30:53.041Z,1009.54
2019-04-28T04:31:45.404Z,1009.6
2019-04-28T04:32:20.751Z,1009.6
2019-04-28T04:33:05.860Z,1009.6
2019-04-28T04:33:32.050Z,1009.6
2019-04-28T04:34:24.532Z,1009.62
2019-04-28T04:35:16.826Z,1009.6
2019-04-28T04:35:43.594Z,1009.59
2019-04-28T04:36:36.092Z,1009.58
2019-04-28T04:37:02.227Z,1009.57
2019-04-28T04:37:54.532Z,1009.6
2019-04-28T04:39:15.003Z,1009.66
2019-04-28T04:40:33.494Z,1009.67
2019-04-28T04:41:25.833Z,1009.64
2019-04-28T04:41:51.971Z,1009.7
2019-04-28T04:42:44.338Z,1009.7
2019-04-28T04:43:36.663Z,1009.68
2019-04-28T04:44:02.838Z,1009.72
2019-04-28T04:44:56.105Z,1009.71
2019-04-28T04:45:22.263Z,1009.71
2019-04-28T04:46:14.746Z,1009.72
2019-04-28T04:47:33.172Z,1009.68
2019-04-28T04:48:25.457Z,1009.75
2019-04-28T04:49:43.880Z,1009.74
2019-04-28T04:50:36.170Z,1009.74
2019-04-28T04:51:02.304Z,1009.72
2019-04-28T04:51:54.606Z,1009.76
2019-04-28T04:52:46.922Z,1009.77
2019-04-28T04:53:13.366Z,1009.78
2019-04-28T04:54:05.681Z,1009.77
2019-04-28T04:54:32.387Z,1009.77
2019-04-28T04:55:24.180Z,1009.81
2019-04-28T04:56:16.499Z,1009.78
2019-04-28T04:56:42.630Z,1009.82
2019-04-28T04:57:34.949Z,1009.83
2019-04-28T04:58:53.399Z,1009.83
2019-04-28T04:59:45.727Z,1009.81
2019-04-28T05:00:11.910Z,1009.8
2019-04-28T05:01:04.237Z,1009.81
2019-04-28T05:01:56.550Z,1009.78
2019-04-28T05:02:29.202Z,1009.78
2019-04-28T05:02:55.049Z,1009.79
2019-04-28T05:03:45.102Z,1009.83
2019-04-28T05:05:03.531Z,1009.87
2019-04-28T05:05:55.816Z,1009.89
2019-04-28T05:06:21.946Z,1009.86
2019-04-28T05:07:14.230Z,1009.93
2019-04-28T05:08:06.544Z,1009.9
2019-04-28T05:08:33.668Z,1009.89
2019-04-28T05:09:25.996Z,1009.85
2019-04-28T05:09:52.164Z,1009.85
2019-04-28T05:10:44.466Z,1009.86
2019-04-28T05:11:36.771Z,1009.87
2019-04-28T05:12:02.915Z,1009.86
2019-04-28T05:12:55.195Z,1009.88
2019-04-28T05:14:13.623Z,1009.89
2019-04-28T05:15:05.904Z,1009.89
2019-04-28T05:15:32.065Z,1009.85
2019-04-28T05:16:24.353Z,1009.94
2019-04-28T05:17:16.632Z,1009.89
2019-04-28T05:17:42.778Z,1009.89
2019-04-28T05:18:35.049Z,1009.93
2019-04-28T05:19:53.466Z,1009.96
2019-04-28T05:20:45.747Z,1009.95
2019-04-28T05:21:11.881Z,1009.95
2019-04-28T05:22:04.949Z,1009.98
2019-04-28T05:23:23.367Z,1009.98
2019-04-28T05:24:17.453Z,1009.96
2019-04-28T05:24:46.122Z,1009.98
2019-04-28T05:26:07.902Z,1009.99
2019-04-28T05:27:25.848Z,1010.01
2019-04-28T05:27:54.465Z,1010.04
2019-04-28T05:28:51.328Z,1010.02
2019-04-28T05:29:14.297Z,1010.02
2019-04-28T05:30:38.878Z,1009.99
2019-04-28T05:31:01.904Z,1010
2019-04-28T05:31:59.054Z,1010.06
2019-04-28T05:32:22.994Z,1010
2019-04-28T05:33:45.371Z,1010.02
2019-04-28T05:34:12.492Z,1010.01
2019-04-28T05:35:05.794Z,1010.04
2019-04-28T05:35:35.624Z,1010.03
2019-04-28T05:36:03.105Z,1010.06
2019-04-28T05:36:56.290Z,1010.07
2019-04-28T05:37:22.425Z,1010.06
2019-04-28T05:38:14.711Z,1010.07
2019-04-28T05:39:33.124Z,1010.09
2019-04-28T05:40:25.415Z,1010.11
2019-04-28T05:41:44.678Z,1010.1
2019-04-28T05:43:03.124Z,1010.12
2019-04-28T05:43:55.403Z,1010.09
2019-04-28T05:45:14.061Z,1010.15
2019-04-28T05:46:06.351Z,1010.17
2019-04-28T05:46:32.486Z,1010.15
2019-04-28T05:47:24.774Z,1010.18
2019-04-28T05:48:44.199Z,1010.18
2019-04-28T05:49:36.510Z,1010.18
2019-04-28T05:50:02.645Z,1010.21
2019-04-28T05:50:54.957Z,1010.22
2019-04-28T05:52:13.379Z,1010.26
2019-04-28T05:53:05.660Z,1010.25
2019-04-28T05:53:31.816Z,1010.24
2019-04-28T05:54:25.106Z,1010.26
2019-04-28T05:55:43.567Z,1010.26
2019-04-28T05:56:35.852Z,1010.26
2019-04-28T05:57:02.334Z,1010.32
2019-04-28T05:57:54.291Z,1010.27
2019-04-28T05:58:46.582Z,1010.23
2019-04-28T05:59:12.756Z,1010.27
2019-04-28T06:00:05.078Z,1010.33
2019-04-28T06:01:23.534Z,1010.33
2019-04-28T06:02:15.811Z,1010.31
2019-04-28T06:02:54.006Z,1010.34
2019-04-28T06:03:36.243Z,1010.32
2019-04-28T06:04:02.378Z,1010.35
2019-04-28T06:04:54.684Z,1010.36
2019-04-28T06:06:13.132Z,1010.37
2019-04-28T06:07:05.421Z,1010.34
2019-04-28T06:08:23.855Z,1010.41
2019-04-28T06:09:16.193Z,1010.39
2019-04-28T06:09:42.338Z,1010.4
2019-04-28T06:10:34.617Z,1010.42
2019-04-28T06:11:26.920Z,1010.44
2019-04-28T06:11:54.554Z,1010.4
2019-04-28T06:12:46.350Z,1010.4
2019-04-28T06:13:12.480Z,1010.42
2019-04-28T06:14:04.773Z,1010.39
2019-04-28T06:15:23.228Z,1010.39
2019-04-28T06:16:15.550Z,1010.41
2019-04-28T06:17:34.984Z,1010.4
2019-04-28T06:18:53.399Z,1010.42
2019-04-28T06:19:45.691Z,1010.44
2019-04-28T06:20:11.923Z,1010.41
2019-04-28T06:21:04.153Z,1010.44
2019-04-28T06:21:56.436Z,1010.53
2019-04-28T06:22:22.566Z,1010.43
2019-04-28T06:23:14.847Z,1010.42
2019-04-28T06:24:33.315Z,1010.45
2019-04-28T06:25:25.649Z,1010.5
2019-04-28T06:25:51.766Z,1010.51
2019-04-28T06:26:44.062Z,1010.5
2019-04-28T06:27:36.371Z,1010.54
2019-04-28T06:28:02.513Z,1010.54
2019-04-28T06:28:54.788Z,1010.55
2019-04-28T06:30:13.210Z,1010.59
2019-04-28T06:31:05.499Z,1010.59
2019-04-28T06:32:23.953Z,1010.57
2019-04-28T06:33:44.672Z,1010.63
2019-04-28T06:34:36.917Z,1010.63
2019-04-28T06:35:03.056Z,1010.67
2019-04-28T06:35:55.357Z,1010.7
2019-04-28T06:37:13.783Z,1010.71
2019-04-28T06:38:06.073Z,1010.73
2019-04-28T06:38:32.207Z,1010.74
2019-04-28T06:39:24.517Z,1010.74
2019-04-28T06:40:43.924Z,1010.75
2019-04-28T06:41:36.206Z,1010.77
2019-04-28T06:42:02.360Z,1010.77
2019-04-28T06:42:54.662Z,1010.73
2019-04-28T06:43:46.951Z,1010.76
2019-04-28T06:44:13.101Z,1010.81
2019-04-28T06:45:05.386Z,1010.75
2019-04-28T06:46:23.814Z,1010.8
2019-04-28T06:47:16.858Z,1010.83
2019-04-28T06:47:43.059Z,1010.84
2019-04-28T06:48:35.350Z,1010.84
2019-04-28T06:49:53.756Z,1010.9
2019-04-28T06:50:46.075Z,1010.91
2019-04-28T06:51:12.212Z,1010.86
2019-04-28T06:52:04.502Z,1010.87
2019-04-28T06:52:56.784Z,1010.89
2019-04-28T06:53:23.930Z,1010.93
2019-04-28T06:54:16.220Z,1010.95
2019-04-28T06:54:42.357Z,1010.93
2019-04-28T06:55:34.650Z,1010.94
2019-04-28T06:56:26.927Z,1010.96
2019-04-28T06:56:53.077Z,1010.96
2019-04-28T06:57:45.368Z,1011.01
2019-04-28T06:59:03.870Z,1010.98
2019-04-28T06:59:56.158Z,1010.98
2019-04-28T07:00:22.296Z,1010.99
2019-04-28T07:01:14.591Z,1010.98
2019-04-28T07:02:06.877Z,1010.98
2019-04-28T07:02:33.018Z,1011.02
2019-04-28T07:03:26.287Z,1011.03
2019-04-28T07:03:52.421Z,1010.99
2019-04-28T07:04:44.735Z,1010.98
2019-04-28T07:05:11.869Z,1011.01
2019-04-28T07:06:04.211Z,1010.97
2019-04-28T07:06:56.500Z,1010.99
2019-04-28T07:07:22.629Z,1011.03
2019-04-28T07:08:14.932Z,1011.01
2019-04-28T07:09:33.399Z,1011.03
2019-04-28T07:10:25.676Z,1011.01
2019-04-28T07:10:51.808Z,1010.98
2019-04-28T07:11:44.094Z,1011.03
2019-04-28T07:12:36.396Z,1011.03
2019-04-28T07:13:02.526Z,1011.01
2019-04-28T07:13:54.813Z,1011.03
2019-04-28T07:15:13.236Z,1011.05
2019-04-28T07:16:05.542Z,1011.06
2019-04-28T07:16:31.716Z,1011.07
2019-04-28T07:17:24.011Z,1011.01
2019-04-28T07:18:16.331Z,1011.06
2019-04-28T07:18:42.466Z,1011.06
2019-04-28T07:19:34.759Z,1011.09
2019-04-28T07:20:53.207Z,1011.09
2019-04-28T07:21:45.490Z,1011.08
2019-04-28T07:23:04.018Z,1011.08
2019-04-28T07:23:56.272Z,1011.1
2019-04-28T07:24:22.557Z,1011.13
2019-04-28T07:25:15.848Z,1011.11
2019-04-28T07:25:42.004Z,1011.1
2019-04-28T07:26:34.316Z,1011.13
2019-04-28T07:27:26.648Z,1011.13
2019-04-28T07:27:52.785Z,1011.16
2019-04-28T07:28:45.064Z,1011.17
2019-04-28T07:30:03.526Z,1011.21
2019-04-28T07:30:55.842Z,1011.15
2019-04-28T07:31:21.986Z,1011.18
2019-04-28T07:32:14.271Z,1011.26
2019-04-28T07:33:06.559Z,1011.21
2019-04-28T07:33:35.966Z,1011.18
2019-04-28T07:34:25.084Z,1011.19
2019-04-28T07:35:43.575Z,1011.21
2019-04-28T07:36:35.865Z,1011.25
2019-04-28T07:37:02.002Z,1011.27
2019-04-28T07:37:54.307Z,1011.24
2019-04-28T07:38:46.883Z,1011.21
2019-04-28T07:39:13.065Z,1011.19
2019-04-28T07:40:06.628Z,1011.24
2019-04-28T07:40:32.834Z,1011.22
2019-04-28T07:41:25.140Z,1011.17
2019-04-28T07:42:43.597Z,1011.21
2019-04-28T07:43:35.894Z,1011.19
2019-04-28T07:44:02.032Z,1011.12
2019-04-28T07:44:54.338Z,1011.2
2019-04-28T07:45:46.633Z,1011.22
2019-04-28T07:46:12.799Z,1011.19
2019-04-28T07:47:05.102Z,1011.23
2019-04-28T07:48:23.533Z,1011.24
2019-04-28T07:49:16.391Z,1011.3
2019-04-28T07:49:42.475Z,1011.28
2019-04-28T07:50:34.785Z,1011.3
2019-04-28T07:51:53.199Z,1011.36
2019-04-28T07:52:45.486Z,1011.34
2019-04-28T07:54:04.904Z,1011.44
2019-04-28T07:55:23.397Z,1011.42
2019-04-28T07:56:15.674Z,1011.36
2019-04-28T07:56:41.815Z,1011.42
2019-04-28T07:57:34.629Z,1011.35
2019-04-28T07:58:26.914Z,1011.34
2019-04-28T07:58:53.062Z,1011.34
2019-04-28T07:59:45.359Z,1011.39
2019-04-28T08:01:03.799Z,1011.29
2019-04-28T08:01:56.113Z,1011.28
2019-04-28T08:02:22.280Z,1011.35
2019-04-28T08:03:14.622Z,1011.34
2019-04-28T08:03:49.067Z,1011.33
2019-04-28T08:04:35.017Z,1011.33
2019-04-28T08:05:53.440Z,1011.36
2019-04-28T08:06:46.724Z,1011.44
2019-04-28T08:07:12.885Z,1011.43
2019-04-28T08:08:05.159Z,1011.48
2019-04-28T08:09:23.612Z,1011.38
2019-04-28T08:10:15.927Z,1011.36
2019-04-28T08:10:42.059Z,1011.29
2019-04-28T08:11:34.353Z,1011.3
2019-04-28T08:12:26.639Z,1011.31
2019-04-28T08:12:52.776Z,1011.25
2019-04-28T08:13:45.061Z,1011.31
2019-04-28T08:15:03.502Z,1011.36
2019-04-28T08:15:55.813Z,1011.36
2019-04-28T08:16:21.951Z,1011.37
2019-04-28T08:17:14.284Z,1011.36
2019-04-28T08:18:06.577Z,1011.4
2019-04-28T08:18:32.747Z,1011.35
2019-04-28T08:19:25.037Z,1011.28
2019-04-28T08:20:43.477Z,1011.43
2019-04-28T08:21:35.753Z,1011.43
2019-04-28T08:22:01.890Z,1011.38
2019-04-28T08:22:54.173Z,1011.48
2019-04-28T08:24:14.621Z,1011.49
2019-04-28T08:25:06.906Z,1011.53
2019-04-28T08:25:33.042Z,1011.5
2019-04-28T08:26:25.323Z,1011.44
2019-04-28T08:26:52.059Z,1011.41
2019-04-28T08:27:44.344Z,1011.53
2019-04-28T08:28:36.643Z,1011.57
2019-04-28T08:29:02.780Z,1011.59
2019-04-28T08:29:58.463Z,1011.51
2019-04-28T08:30:22.197Z,1011.53
2019-04-28T08:31:14.505Z,1011.47
2019-04-28T08:32:06.837Z,1011.57
2019-04-28T08:32:32.972Z,1011.56
2019-04-28T08:33:25.327Z,1011.58
2019-04-28T08:34:44.945Z,1011.66
2019-04-28T08:36:03.417Z,1011.57
2019-04-28T08:36:55.744Z,1011.53
2019-04-28T08:37:21.901Z,1011.55
2019-04-28T08:38:14.628Z,1011.59
2019-04-28T08:39:06.951Z,1011.66
2019-04-28T08:39:34.091Z,1011.66
2019-04-28T08:40:26.582Z,1011.66
2019-04-28T08:40:52.723Z,1011.59
2019-04-28T08:41:45.010Z,1011.6
2019-04-28T08:43:03.442Z,1011.5
2019-04-28T08:43:55.737Z,1011.49
2019-04-28T08:44:21.876Z,1011.49
2019-04-28T08:45:14.161Z,1011.47
2019-04-28T08:46:06.455Z,1011.44
2019-04-28T08:46:32.591Z,1011.38
2019-04-28T08:47:24.886Z,1011.39
2019-04-28T08:48:44.354Z,1011.32
2019-04-28T08:49:36.724Z,1011.34
2019-04-28T08:50:02.806Z,1011.33
2019-04-28T08:50:55.114Z,1011.41
2019-04-28T08:52:13.534Z,1011.37
2019-04-28T08:53:05.828Z,1011.36
2019-04-28T08:53:31.970Z,1011.38
2019-04-28T08:54:24.270Z,1011.36
2019-04-28T08:55:16.567Z,1011.36
2019-04-28T08:55:42.702Z,1011.44
2019-04-28T08:56:34.990Z,1011.52
2019-04-28T08:57:53.421Z,1011.49
2019-04-28T08:58:45.736Z,1011.51
2019-04-28T08:59:11.929Z,1011.51
2019-04-28T09:00:04.207Z,1011.52
2019-04-28T09:00:56.489Z,1011.6
2019-04-28T09:01:22.661Z,1011.61
2019-04-28T09:02:14.959Z,1011.63
2019-04-28T09:03:33.426Z,1011.63
2019-04-28T09:04:26.383Z,1011.78
2019-04-28T09:04:52.515Z,1011.68
2019-04-28T09:05:44.797Z,1011.71
2019-04-28T09:07:03.226Z,1011.71
2019-04-28T09:07:55.536Z,1011.77
2019-04-28T09:09:13.992Z,1011.82
2019-04-28T09:10:06.368Z,1011.79
2019-04-28T09:10:32.502Z,1011.83
2019-04-28T09:11:25.116Z,1011.83
2019-04-28T09:12:43.607Z,1011.87
2019-04-28T09:13:35.884Z,1011.86
2019-04-28T09:14:02.025Z,1011.88
2019-04-28T09:14:54.313Z,1011.89
2019-04-28T09:15:46.592Z,1011.88
2019-04-28T09:16:12.730Z,1011.88
2019-04-28T09:17:05.014Z,1011.9
2019-04-28T09:18:23.494Z,1011.87
2019-04-28T09:19:15.778Z,1011.87
2019-04-28T09:19:42.472Z,1011.88
2019-04-28T09:20:34.224Z,1011.86
2019-04-28T09:21:26.518Z,1011.9
2019-04-28T09:21:52.659Z,1011.88
2019-04-28T09:22:44.969Z,1011.92
2019-04-28T09:24:03.396Z,1011.97
2019-04-28T09:24:55.686Z,1011.97
2019-04-28T09:25:21.826Z,1012.03
2019-04-28T09:26:14.111Z,1012
2019-04-28T09:27:33.547Z,1012.07
2019-04-28T09:28:25.830Z,1012.04
2019-04-28T09:28:51.966Z,1012.05
2019-04-28T09:29:44.278Z,1012.11
2019-04-28T09:30:36.563Z,1012.06
2019-04-28T09:31:02.703Z,1012.04
2019-04-28T09:31:54.999Z,1012.06
2019-04-28T09:33:13.472Z,1012.1
2019-04-28T09:34:06.016Z,1012.09
2019-04-28T09:34:33.263Z,1012.11
2019-04-28T09:35:25.554Z,1012.14
2019-04-28T09:36:43.967Z,1012.14
2019-04-28T09:37:36.352Z,1012.2
2019-04-28T09:38:02.493Z,1012.16
2019-04-28T09:38:54.775Z,1012.21
2019-04-28T09:40:13.319Z,1012.22
2019-04-28T09:41:05.610Z,1012.24
2019-04-28T09:41:31.773Z,1012.28
2019-04-28T09:42:24.052Z,1012.26
2019-04-28T09:43:16.338Z,1012.3
2019-04-28T09:43:42.480Z,1012.31
2019-04-28T09:44:34.767Z,1012.33
2019-04-28T09:45:53.189Z,1012.38
2019-04-28T09:46:45.474Z,1012.41
2019-04-28T09:48:03.899Z,1012.45
2019-04-28T09:48:56.187Z,1012.49
2019-04-28T09:49:22.322Z,1012.45
2019-04-28T09:50:14.646Z,1012.49
2019-04-28T09:51:06.934Z,1012.52
2019-04-28T09:51:33.068Z,1012.5
2019-04-28T09:52:25.377Z,1012.53
2019-04-28T09:52:52.498Z,1012.54
2019-04-28T09:53:44.815Z,1012.48
2019-04-28T09:55:03.273Z,1012.54
2019-04-28T09:55:55.578Z,1012.5
2019-04-28T09:56:21.719Z,1012.5
2019-04-28T09:57:15.983Z,1012.5
2019-04-28T09:57:42.123Z,1012.51
2019-04-28T09:58:35.400Z,1012.48
2019-04-28T09:59:53.824Z,1012.5
2019-04-28T10:00:46.144Z,1012.44
2019-04-28T10:01:12.305Z,1012.43
2019-04-28T10:02:04.597Z,1012.42
2019-04-28T10:02:56.890Z,1012.44
2019-04-28T10:03:25.257Z,1012.43
2019-04-28T10:04:16.323Z,1012.43
2019-04-28T10:04:42.513Z,1012.43